sensor_id;sensor_type;location;lat;lon;timestamp;pressure;altitude;pressure_sealevel;temperature;humidity
67840;BME280;54636;51.684;5.142;2022-07-11T00:01:48;102453.78;;;15.67;88.65
67840;BME280;54636;51.684;5.142;2022-07-11T00:04:13;102454.53;;;15.68;89.16
67840;BME280;54636;51.684;5.142;2022-07-11T00:06:39;102464.53;;;15.71;89.25
67840;BME280;54636;51.684;5.142;2022-07-11T00:09:04;102470.78;;;15.71;88.78
67840;BME280;54636;51.684;5.142;2022-07-11T00:11:30;102463.22;;;15.66;89.65
67840;BME280;54636;51.684;5.142;2022-07-11T00:13:55;102443.44;;;15.57;89.59
67840;BME280;54636;51.684;5.142;2022-07-11T00:16:20;102452.19;;;15.61;89.96
67840;BME280;54636;51.684;5.142;2022-07-11T00:18:46;102463.41;;;15.63;89.68
67840;BME280;54636;51.684;5.142;2022-07-11T00:21:11;102461.72;;;15.65;89.63
67840;BME280;54636;51.684;5.142;2022-07-11T00:23:37;102417.66;;;15.34;90.00
67840;BME280;54636;51.684;5.142;2022-07-11T00:26:03;102417.88;;;15.30;90.19
67840;BME280;54636;51.684;5.142;2022-07-11T00:28:28;102463.41;;;15.63;90.57
67840;BME280;54636;51.684;5.142;2022-07-11T00:30:54;102442.56;;;15.51;90.61
67840;BME280;54636;51.684;5.142;2022-07-11T00:33:20;102444.63;;;15.56;90.79
67840;BME280;54636;51.684;5.142;2022-07-11T00:35:45;102447.09;;;15.54;91.08
67840;BME280;54636;51.684;5.142;2022-07-11T00:38:10;102456.81;;;15.55;91.10
67840;BME280;54636;51.684;5.142;2022-07-11T00:40:36;102442.22;;;15.43;91.06
67840;BME280;54636;51.684;5.142;2022-07-11T00:43:05;102453.34;;;15.54;91.39
67840;BME280;54636;51.684;5.142;2022-07-11T00:45:31;102453.34;;;15.54;91.80
67840;BME280;54636;51.684;5.142;2022-07-11T00:47:57;102439.47;;;15.43;91.55
67840;BME280;54636;51.684;5.142;2022-07-11T00:50:26;102445.31;;;15.51;91.84
67840;BME280;54636;51.684;5.142;2022-07-11T00:52:52;102449.75;;;15.48;92.07
67840;BME280;54636;51.684;5.142;2022-07-11T00:55:20;102408.06;;;15.24;91.93
67840;BME280;54636;51.684;5.142;2022-07-11T00:57:46;102445.13;;;15.39;92.15
67840;BME280;54636;51.684;5.142;2022-07-11T01:00:12;102447.69;;;15.43;92.46
67840;BME280;54636;51.684;5.142;2022-07-11T01:02:39;102447.59;;;15.37;92.87
67840;BME280;54636;51.684;5.142;2022-07-11T01:05:04;102451.38;;;15.40;92.78
67840;BME280;54636;51.684;5.142;2022-07-11T01:07:30;102432.50;;;15.27;92.72
67840;BME280;54636;51.684;5.142;2022-07-11T01:09:57;102442.22;;;15.43;92.79
67840;BME280;54636;51.684;5.142;2022-07-11T01:12:22;102402.50;;;15.18;93.32
67840;BME280;54636;51.684;5.142;2022-07-11T01:14:52;102434.66;;;15.38;93.22
67840;BME280;54636;51.684;5.142;2022-07-11T01:17:17;102431.91;;;15.38;90.79
67840;BME280;54636;51.684;5.142;2022-07-11T01:19:42;102439.56;;;15.34;93.36
67840;BME280;54636;51.684;5.142;2022-07-11T01:22:08;102421.47;;;15.22;93.49
67840;BME280;54636;51.684;5.142;2022-07-11T01:24:33;102434.47;;;15.27;93.45
67840;BME280;54636;51.684;5.142;2022-07-11T01:26:59;102426.84;;;15.16;93.65
67840;BME280;54636;51.684;5.142;2022-07-11T01:29:25;102413.16;;;15.01;93.86
67840;BME280;54636;51.684;5.142;2022-07-11T01:31:50;102428.34;;;15.02;93.84
67840;BME280;54636;51.684;5.142;2022-07-11T01:34:16;102398.38;;;14.78;93.98
67840;BME280;54636;51.684;5.142;2022-07-11T01:36:41;102445.91;;;15.10;94.45
67840;BME280;54636;51.684;5.142;2022-07-11T01:39:07;102425.75;;;14.93;94.68
67840;BME280;54636;51.684;5.142;2022-07-11T01:41:33;102423.66;;;14.88;94.71
67840;BME280;54636;51.684;5.142;2022-07-11T01:43:59;102457.03;;;15.07;94.89
67840;BME280;54636;51.684;5.142;2022-07-11T01:46:24;102456.28;;;15.06;95.00
67840;BME280;54636;51.684;5.142;2022-07-11T01:48:49;102443.06;;;15.05;95.13
67840;BME280;54636;51.684;5.142;2022-07-11T01:51:15;102444.88;;;15.08;95.25
67840;BME280;54636;51.684;5.142;2022-07-11T01:53:40;102461.56;;;15.10;95.00
67840;BME280;54636;51.684;5.142;2022-07-11T01:56:06;102431.69;;;14.92;95.41
67840;BME280;54636;51.684;5.142;2022-07-11T01:58:31;102438.34;;;15.05;95.49
67840;BME280;54636;51.684;5.142;2022-07-11T02:00:57;102455.34;;;15.24;95.11
67840;BME280;54636;51.684;5.142;2022-07-11T02:03:23;102429.50;;;15.10;95.29
67840;BME280;54636;51.684;5.142;2022-07-11T02:05:49;102427.50;;;15.11;95.02
67840;BME280;54636;51.684;5.142;2022-07-11T02:08:14;102444.00;;;15.31;94.80
67840;BME280;54636;51.684;5.142;2022-07-11T02:10:48;102442.78;;;15.32;94.85
67840;BME280;54636;51.684;5.142;2022-07-11T02:13:16;102451.47;;;15.45;94.53
67840;BME280;54636;51.684;5.142;2022-07-11T02:15:43;102419.66;;;15.33;94.82
67840;BME280;54636;51.684;5.142;2022-07-11T02:18:10;102426.72;;;15.40;94.81
67840;BME280;54636;51.684;5.142;2022-07-11T02:20:36;102448.59;;;15.55;94.85
67840;BME280;54636;51.684;5.142;2022-07-11T02:23:05;102443.22;;;15.60;94.19
67840;BME280;54636;51.684;5.142;2022-07-11T02:25:30;102447.75;;;15.63;94.21
67840;BME280;54636;51.684;5.142;2022-07-11T02:27:56;102391.03;;;15.34;93.72
67840;BME280;54636;51.684;5.142;2022-07-11T02:30:21;102431.88;;;15.67;93.92
67840;BME280;54636;51.684;5.142;2022-07-11T02:32:48;102437.63;;;15.69;93.62
67840;BME280;54636;51.684;5.142;2022-07-11T02:35:14;102439.00;;;15.79;93.23
67840;BME280;54636;51.684;5.142;2022-07-11T02:37:39;102412.88;;;15.64;92.88
67840;BME280;54636;51.684;5.142;2022-07-11T02:40:05;102426.19;;;15.71;93.05
67840;BME280;54636;51.684;5.142;2022-07-11T02:42:31;102422.03;;;15.75;92.79
67840;BME280;54636;51.684;5.142;2022-07-11T02:44:57;102423.25;;;15.74;92.42
67840;BME280;54636;51.684;5.142;2022-07-11T02:47:22;102438.63;;;15.87;92.79
67840;BME280;54636;51.684;5.142;2022-07-11T02:49:49;102405.50;;;15.70;92.27
67840;BME280;54636;51.684;5.142;2022-07-11T02:52:14;102424.34;;;15.82;92.22
67840;BME280;54636;51.684;5.142;2022-07-11T02:54:39;102427.44;;;15.90;92.18
67840;BME280;54636;51.684;5.142;2022-07-11T02:57:05;102432.25;;;15.95;91.96
67840;BME280;54636;51.684;5.142;2022-07-11T02:59:30;102438.28;;;15.99;92.08
67840;BME280;54636;51.684;5.142;2022-07-11T03:01:56;102441.31;;;16.01;92.01
67840;BME280;54636;51.684;5.142;2022-07-11T03:04:21;102437.53;;;15.99;91.91
67840;BME280;54636;51.684;5.142;2022-07-11T03:06:47;102429.25;;;15.93;91.99
67840;BME280;54636;51.684;5.142;2022-07-11T03:09:13;102438.09;;;16.03;92.05
67840;BME280;54636;51.684;5.142;2022-07-11T03:11:38;102428.19;;;15.91;91.72
67840;BME280;54636;51.684;5.142;2022-07-11T03:14:04;102423.47;;;15.91;91.89
67840;BME280;54636;51.684;5.142;2022-07-11T03:16:30;102424.63;;;15.85;91.97
67840;BME280;54636;51.684;5.142;2022-07-11T03:18:56;102457.53;;;16.05;91.91
67840;BME280;54636;51.684;5.142;2022-07-11T03:21:22;102436.22;;;15.94;91.90
67840;BME280;54636;51.684;5.142;2022-07-11T03:23:48;102447.53;;;16.02;91.83
67840;BME280;54636;51.684;5.142;2022-07-11T03:26:15;102455.84;;;16.07;91.72
67840;BME280;54636;51.684;5.142;2022-07-11T03:28:41;102456.09;;;16.09;91.63
67840;BME280;54636;51.684;5.142;2022-07-11T03:31:06;102439.25;;;15.96;91.79
67840;BME280;54636;51.684;5.142;2022-07-11T03:33:31;102454.41;;;16.12;91.62
67840;BME280;54636;51.684;5.142;2022-07-11T03:35:57;102451.38;;;16.10;91.74
67840;BME280;54636;51.684;5.142;2022-07-11T03:38:22;102457.88;;;16.12;91.85
67840;BME280;54636;51.684;5.142;2022-07-11T03:40:48;102449.94;;;16.14;91.61
67840;BME280;54636;51.684;5.142;2022-07-11T03:43:14;102434.78;;;15.99;91.39
67840;BME280;54636;51.684;5.142;2022-07-11T03:45:41;102451.44;;;16.16;91.40
67840;BME280;54636;51.684;5.142;2022-07-11T03:48:06;102452.69;;;16.14;91.58
67840;BME280;54636;51.684;5.142;2022-07-11T03:50:33;102458.44;;;16.17;91.13
67840;BME280;54636;51.684;5.142;2022-07-11T03:52:58;102447.97;;;16.15;91.19
67840;BME280;54636;51.684;5.142;2022-07-11T03:55:24;102438.16;;;16.08;91.04
67840;BME280;54636;51.684;5.142;2022-07-11T03:57:49;102451.72;;;16.18;90.88
67840;BME280;54636;51.684;5.142;2022-07-11T04:00:15;102447.75;;;16.19;91.06
67840;BME280;54636;51.684;5.142;2022-07-11T04:02:41;102436.25;;;16.14;90.48
67840;BME280;54636;51.684;5.142;2022-07-11T04:05:07;102445.75;;;16.19;90.65
67840;BME280;54636;51.684;5.142;2022-07-11T04:07:32;102442.28;;;16.19;90.79
67840;BME280;54636;51.684;5.142;2022-07-11T04:09:58;102441.31;;;16.22;90.41
67840;BME280;54636;51.684;5.142;2022-07-11T04:12:23;102448.81;;;16.27;90.38
67840;BME280;54636;51.684;5.142;2022-07-11T04:14:49;102451.56;;;16.27;90.07
67840;BME280;54636;51.684;5.142;2022-07-11T04:17:14;102457.81;;;16.27;90.06
67840;BME280;54636;51.684;5.142;2022-07-11T04:19:40;102399.50;;;15.86;89.96
67840;BME280;54636;51.684;5.142;2022-07-11T04:22:05;102453.81;;;16.28;90.10
67840;BME280;54636;51.684;5.142;2022-07-11T04:24:31;102444.31;;;16.24;90.05
67840;BME280;54636;51.684;5.142;2022-07-11T04:26:57;102400.81;;;15.91;90.02
67840;BME280;54636;51.684;5.142;2022-07-11T04:29:22;102451.78;;;16.23;90.57
67840;BME280;54636;51.684;5.142;2022-07-11T04:31:49;102455.81;;;16.28;90.48
67840;BME280;54636;51.684;5.142;2022-07-11T04:34:15;102444.06;;;16.22;90.73
67840;BME280;54636;51.684;5.142;2022-07-11T04:36:41;102454.84;;;16.31;90.25
67840;BME280;54636;51.684;5.142;2022-07-11T04:39:06;102457.88;;;16.33;90.46
67840;BME280;54636;51.684;5.142;2022-07-11T04:41:31;102446.09;;;16.27;90.56
67840;BME280;54636;51.684;5.142;2022-07-11T04:43:58;102449.84;;;16.29;90.28
67840;BME280;54636;51.684;5.142;2022-07-11T04:46:23;102446.09;;;16.27;90.35
67840;BME280;54636;51.684;5.142;2022-07-11T04:48:48;102463.56;;;16.29;90.25
67840;BME280;54636;51.684;5.142;2022-07-11T04:51:14;102474.88;;;16.37;90.18
67840;BME280;54636;51.684;5.142;2022-07-11T04:53:39;102469.19;;;16.40;90.28
67840;BME280;54636;51.684;5.142;2022-07-11T04:56:05;102448.31;;;16.23;90.07
67840;BME280;54636;51.684;5.142;2022-07-11T04:58:31;102447.06;;;16.24;90.54
67840;BME280;54636;51.684;5.142;2022-07-11T05:00:58;102448.34;;;16.28;90.32
67840;BME280;54636;51.684;5.142;2022-07-11T05:03:24;102463.41;;;16.38;90.21
67840;BME280;54636;51.684;5.142;2022-07-11T05:05:49;102462.66;;;16.38;90.20
67840;BME280;54636;51.684;5.142;2022-07-11T05:08:15;102458.41;;;16.37;90.44
67840;BME280;54636;51.684;5.142;2022-07-11T05:10:41;102460.75;;;16.44;89.96
67840;BME280;54636;51.684;5.142;2022-07-11T05:13:07;102466.97;;;16.44;90.13
67840;BME280;54636;51.684;5.142;2022-07-11T05:15:32;102469.78;;;16.50;89.99
67840;BME280;54636;51.684;5.142;2022-07-11T05:18:01;102463.00;;;16.45;90.31
67840;BME280;54636;51.684;5.142;2022-07-11T05:20:26;102457.72;;;16.42;90.08
67840;BME280;54636;51.684;5.142;2022-07-11T05:22:52;102443.34;;;16.27;89.95
67840;BME280;54636;51.684;5.142;2022-07-11T05:25:17;102485.91;;;16.63;89.92
67840;BME280;54636;51.684;5.142;2022-07-11T05:27:43;102432.44;;;16.32;89.42
67840;BME280;54636;51.684;5.142;2022-07-11T05:30:09;102430.94;;;16.31;89.63
67840;BME280;54636;51.684;5.142;2022-07-11T05:32:34;102459.31;;;16.48;89.66
67840;BME280;54636;51.684;5.142;2022-07-11T05:35:07;102499.50;;;16.72;89.93
67840;BME280;54636;51.684;5.142;2022-07-11T05:37:38;102460.31;;;16.51;89.66
67840;BME280;54636;51.684;5.142;2022-07-11T05:40:05;102454.03;;;16.45;89.54
67840;BME280;54636;51.684;5.142;2022-07-11T05:42:56;102447.25;;;16.40;89.53
67840;BME280;54636;51.684;5.142;2022-07-11T05:45:35;102427.38;;;16.25;89.92
67840;BME280;54636;51.684;5.142;2022-07-11T05:48:03;102437.97;;;16.38;89.65
67840;BME280;54636;51.684;5.142;2022-07-11T05:50:28;102432.66;;;16.29;89.76
67840;BME280;54636;51.684;5.142;2022-07-11T05:53:05;102453.22;;;16.39;90.11
67840;BME280;54636;51.684;5.142;2022-07-11T05:55:46;102458.41;;;16.37;90.30
67840;BME280;54636;51.684;5.142;2022-07-11T05:58:16;102444.44;;;16.35;90.36
67840;BME280;54636;51.684;5.142;2022-07-11T06:00:49;102477.22;;;16.64;89.78
67840;BME280;54636;51.684;5.142;2022-07-11T06:03:14;102479.53;;;16.71;89.33
67840;BME280;54636;51.684;5.142;2022-07-11T06:05:42;102479.31;;;16.75;89.81
67840;BME280;54636;51.684;5.142;2022-07-11T06:08:07;102507.72;;;16.98;88.81
67840;BME280;54636;51.684;5.142;2022-07-11T06:10:51;102505.53;;;17.02;89.06
67840;BME280;54636;51.684;5.142;2022-07-11T06:13:19;102457.16;;;16.78;88.92
67840;BME280;54636;51.684;5.142;2022-07-11T06:15:47;102436.34;;;16.66;88.78
67840;BME280;54636;51.684;5.142;2022-07-11T06:18:13;102446.19;;;16.78;88.28
67840;BME280;54636;51.684;5.142;2022-07-11T06:20:38;102448.94;;;16.78;88.31
67840;BME280;54636;51.684;5.142;2022-07-11T06:23:09;102433.59;;;16.66;88.10
67840;BME280;54636;51.684;5.142;2022-07-11T06:25:34;102474.31;;;16.99;87.84
67840;BME280;54636;51.684;5.142;2022-07-11T06:28:03;102469.88;;;17.07;87.67
67840;BME280;54636;51.684;5.142;2022-07-11T06:30:39;102518.09;;;17.40;87.46
67840;BME280;54636;51.684;5.142;2022-07-11T06:36:21;102440.94;;;17.06;86.58
67840;BME280;54636;51.684;5.142;2022-07-11T06:38:50;102504.72;;;17.53;86.86
67840;BME280;54636;51.684;5.142;2022-07-11T06:41:27;102464.09;;;17.31;87.13
67840;BME280;54636;51.684;5.142;2022-07-11T06:44:12;102443.09;;;17.28;86.31
67840;BME280;54636;51.684;5.142;2022-07-11T06:46:40;102437.34;;;17.26;86.49
67840;BME280;54636;51.684;5.142;2022-07-11T06:49:06;102453.91;;;17.37;86.15
67840;BME280;54636;51.684;5.142;2022-07-11T06:51:42;102433.91;;;17.31;86.20
67840;BME280;54636;51.684;5.142;2022-07-11T06:54:23;102425.69;;;17.37;86.12
67840;BME280;54636;51.684;5.142;2022-07-11T06:56:48;102473.97;;;17.86;84.93
67840;BME280;54636;51.684;5.142;2022-07-11T06:59:14;102460.72;;;17.85;84.54
67840;BME280;54636;51.684;5.142;2022-07-11T07:01:39;102497.59;;;18.09;84.20
67840;BME280;54636;51.684;5.142;2022-07-11T07:04:05;102496.38;;;18.16;83.82
67840;BME280;54636;51.684;5.142;2022-07-11T07:06:30;102434.16;;;17.70;83.77
67840;BME280;54636;51.684;5.142;2022-07-11T07:08:55;102504.16;;;18.18;83.71
67840;BME280;54636;51.684;5.142;2022-07-11T07:11:21;102447.75;;;17.91;83.72
67840;BME280;54636;51.684;5.142;2022-07-11T07:13:46;102461.88;;;18.15;82.95
67840;BME280;54636;51.684;5.142;2022-07-11T07:16:15;102491.94;;;18.30;82.75
67840;BME280;54636;51.684;5.142;2022-07-11T07:18:40;102471.63;;;18.10;83.50
67840;BME280;54636;51.684;5.142;2022-07-11T07:21:08;102465.38;;;18.10;83.47
67840;BME280;54636;51.684;5.142;2022-07-11T07:23:34;102434.97;;;17.82;83.52
67840;BME280;54636;51.684;5.142;2022-07-11T07:25:59;102488.16;;;18.27;83.83
67840;BME280;54636;51.684;5.142;2022-07-11T07:28:28;102429.00;;;17.84;83.51
67840;BME280;54636;51.684;5.142;2022-07-11T07:31:41;102436.25;;;17.87;83.60
67840;BME280;54636;51.684;5.142;2022-07-11T07:34:49;102438.47;;;17.83;83.27
67840;BME280;54636;51.684;5.142;2022-07-11T07:37:18;102505.38;;;18.22;83.69
67840;BME280;54636;51.684;5.142;2022-07-11T07:39:48;102447.75;;;17.91;83.27
67840;BME280;54636;51.684;5.142;2022-07-11T07:42:14;102424.44;;;17.75;83.86
67840;BME280;54636;51.684;5.142;2022-07-11T07:44:42;102452.50;;;17.90;83.57
67840;BME280;54636;51.684;5.142;2022-07-11T07:47:07;102455.94;;;17.80;84.30
67840;BME280;54636;51.684;5.142;2022-07-11T07:49:33;102523.91;;;18.27;84.21
67840;BME280;54636;51.684;5.142;2022-07-11T07:51:58;102469.75;;;17.91;84.25
67840;BME280;54636;51.684;5.142;2022-07-11T07:54:24;102470.88;;;18.10;83.69
67840;BME280;54636;51.684;5.142;2022-07-11T07:56:49;102453.59;;;18.04;83.29
67840;BME280;54636;51.684;5.142;2022-07-11T07:59:15;102462.41;;;18.19;82.74
67840;BME280;54636;51.684;5.142;2022-07-11T08:01:40;102477.94;;;18.33;82.06
67840;BME280;54636;51.684;5.142;2022-07-11T08:04:08;102473.22;;;18.45;81.07
67840;BME280;54636;51.684;5.142;2022-07-11T08:06:35;102508.16;;;18.82;80.72
67840;BME280;54636;51.684;5.142;2022-07-11T08:09:02;102520.97;;;19.24;80.36
67840;BME280;54636;51.684;5.142;2022-07-11T08:11:28;102501.94;;;19.37;78.44
67840;BME280;54636;51.684;5.142;2022-07-11T08:13:56;102459.34;;;19.44;77.70
67840;BME280;54636;51.684;5.142;2022-07-11T08:16:23;102493.84;;;19.95;74.84
67840;BME280;54636;51.684;5.142;2022-07-11T08:18:51;102504.34;;;20.08;74.35
67840;BME280;54636;51.684;5.142;2022-07-11T08:21:21;102464.53;;;19.81;74.15
67840;BME280;54636;51.684;5.142;2022-07-11T08:23:46;102469.75;;;19.95;73.86
67840;BME280;54636;51.684;5.142;2022-07-11T08:26:21;102505.22;;;20.32;72.91
67840;BME280;54636;51.684;5.142;2022-07-11T08:28:47;102502.50;;;20.21;72.83
67840;BME280;54636;51.684;5.142;2022-07-11T08:31:15;102473.50;;;20.03;72.55
67840;BME280;54636;51.684;5.142;2022-07-11T08:33:58;102462.03;;;19.83;73.42
67840;BME280;54636;51.684;5.142;2022-07-11T08:36:24;102466.03;;;19.82;72.67
67840;BME280;54636;51.684;5.142;2022-07-11T08:39:04;102509.53;;;20.17;73.58
67840;BME280;54636;51.684;5.142;2022-07-11T08:41:32;102529.06;;;20.41;72.95
67840;BME280;54636;51.684;5.142;2022-07-11T08:47:34;102475.56;;;19.86;74.02
67840;BME280;54636;51.684;5.142;2022-07-11T09:00:44;102462.50;;;20.50;70.38
67840;BME280;54636;51.684;5.142;2022-07-11T09:03:13;102506.63;;;20.97;69.24
67840;BME280;54636;51.684;5.142;2022-07-11T09:05:43;102466.75;;;20.92;68.07
67840;BME280;54636;51.684;5.142;2022-07-11T09:08:09;102454.06;;;21.08;67.21
67840;BME280;54636;51.684;5.142;2022-07-11T09:10:37;102472.19;;;21.39;67.61
67840;BME280;54636;51.684;5.142;2022-07-11T09:13:08;102469.38;;;21.45;66.60
67840;BME280;54636;51.684;5.142;2022-07-11T09:15:45;102474.41;;;21.65;66.70
67840;BME280;54636;51.684;5.142;2022-07-11T09:18:45;102516.41;;;22.12;65.63
67840;BME280;54636;51.684;5.142;2022-07-11T09:31:17;102489.50;;;22.13;65.06
67840;BME280;54636;51.684;5.142;2022-07-11T09:33:59;102514.44;;;22.31;65.70
67840;BME280;54636;51.684;5.142;2022-07-11T09:36:42;102456.94;;;22.00;64.59
67840;BME280;54636;51.684;5.142;2022-07-11T09:39:21;102454.53;;;21.91;64.62
67840;BME280;54636;51.684;5.142;2022-07-11T09:45:11;102452.41;;;22.02;64.42
67840;BME280;54636;51.684;5.142;2022-07-11T10:01:36;102445.41;;;23.03;59.38
67840;BME280;54636;51.684;5.142;2022-07-11T10:04:08;102452.50;;;23.17;58.34
67840;BME280;54636;51.684;5.142;2022-07-11T10:06:49;102486.41;;;23.23;58.89
67840;BME280;54636;51.684;5.142;2022-07-11T10:09:17;102471.72;;;23.28;57.40
67840;BME280;54636;51.684;5.142;2022-07-11T10:11:51;102454.31;;;23.15;58.67
67840;BME280;54636;51.684;5.142;2022-07-11T10:20:25;102506.75;;;23.58;57.55
67840;BME280;54636;51.684;5.142;2022-07-11T10:26:19;102528.75;;;23.24;58.72
67840;BME280;54636;51.684;5.142;2022-07-11T10:29:31;102505.28;;;23.25;56.77
67840;BME280;54636;51.684;5.142;2022-07-11T10:32:36;102484.97;;;23.04;57.43
67840;BME280;54636;51.684;5.142;2022-07-11T10:35:13;102480.19;;;23.04;56.06
67840;BME280;54636;51.684;5.142;2022-07-11T10:37:50;102487.31;;;22.99;57.45
67840;BME280;54636;51.684;5.142;2022-07-11T10:40:51;102508.25;;;23.14;58.89
67840;BME280;54636;51.684;5.142;2022-07-11T10:46:03;102495.91;;;22.96;58.00
67840;BME280;54636;51.684;5.142;2022-07-11T10:48:33;102483.88;;;22.93;57.93
67840;BME280;54636;51.684;5.142;2022-07-11T10:51:08;102463.66;;;22.80;58.17
67840;BME280;54636;51.684;5.142;2022-07-11T10:53:46;102508.97;;;22.82;59.96
67840;BME280;54636;51.684;5.142;2022-07-11T10:59:17;102469.69;;;22.97;57.45
67840;BME280;54636;51.684;5.142;2022-07-11T11:04:50;102504.72;;;23.13;57.68
67840;BME280;54636;51.684;5.142;2022-07-11T11:07:37;102465.91;;;23.13;57.04
67840;BME280;54636;51.684;5.142;2022-07-11T11:15:50;102488.72;;;23.78;56.98
67840;BME280;54636;51.684;5.142;2022-07-11T11:18:51;102477.75;;;23.85;56.99
67840;BME280;54636;51.684;5.142;2022-07-11T11:21:38;102466.84;;;23.87;54.95
67840;BME280;54636;51.684;5.142;2022-07-11T11:24:07;102463.34;;;23.87;54.20
67840;BME280;54636;51.684;5.142;2022-07-11T11:26:50;102469.38;;;24.12;53.90
67840;BME280;54636;51.684;5.142;2022-07-11T11:29:23;102506.09;;;24.18;54.28
67840;BME280;54636;51.684;5.142;2022-07-11T11:31:58;102510.66;;;24.42;54.32
67840;BME280;54636;51.684;5.142;2022-07-11T11:34:43;102478.97;;;24.37;55.16
67840;BME280;54636;51.684;5.142;2022-07-11T11:37:42;102459.47;;;24.50;54.87
67840;BME280;54636;51.684;5.142;2022-07-11T11:40:49;102520.06;;;25.07;54.31
67840;BME280;54636;51.684;5.142;2022-07-11T11:43:30;102511.19;;;24.74;53.44
67840;BME280;54636;51.684;5.142;2022-07-11T11:46:04;102458.34;;;24.33;54.84
67840;BME280;54636;51.684;5.142;2022-07-11T11:48:39;102446.28;;;24.30;53.51
67840;BME280;54636;51.684;5.142;2022-07-11T11:54:02;102500.31;;;24.42;54.62
67840;BME280;54636;51.684;5.142;2022-07-11T11:56:38;102455.25;;;24.23;54.06
67840;BME280;54636;51.684;5.142;2022-07-11T12:02:17;102455.47;;;24.25;53.26
67840;BME280;54636;51.684;5.142;2022-07-11T12:05:51;102530.25;;;25.04;54.03
67840;BME280;54636;51.684;5.142;2022-07-11T12:08:42;102467.63;;;24.90;52.85
67840;BME280;54636;51.684;5.142;2022-07-11T12:11:30;102497.91;;;25.14;51.96
67840;BME280;54636;51.684;5.142;2022-07-11T12:14:04;102455.44;;;25.14;52.04
67840;BME280;54636;51.684;5.142;2022-07-11T12:16:47;102487.22;;;25.75;51.18
67840;BME280;54636;51.684;5.142;2022-07-11T12:19:34;102476.44;;;25.51;51.52
67840;BME280;54636;51.684;5.142;2022-07-11T12:22:39;102468.72;;;25.28;52.74
67840;BME280;54636;51.684;5.142;2022-07-11T12:25:10;102466.16;;;25.10;52.15
67840;BME280;54636;51.684;5.142;2022-07-11T12:27:41;102484.13;;;25.30;53.90
67840;BME280;54636;51.684;5.142;2022-07-11T12:30:53;102448.09;;;25.52;51.82
67840;BME280;54636;51.684;5.142;2022-07-11T12:33:31;102463.13;;;25.57;50.91
67840;BME280;54636;51.684;5.142;2022-07-11T12:36:18;102502.38;;;25.67;51.13
67840;BME280;54636;51.684;5.142;2022-07-11T12:39:26;102461.53;;;25.33;52.22
67840;BME280;54636;51.684;5.142;2022-07-11T12:42:31;102514.84;;;25.52;51.79
67840;BME280;54636;51.684;5.142;2022-07-11T12:45:40;102513.13;;;25.42;52.24
67840;BME280;54636;51.684;5.142;2022-07-11T12:48:36;102515.66;;;25.32;51.67
67840;BME280;54636;51.684;5.142;2022-07-11T12:51:29;102459.97;;;24.83;52.82
67840;BME280;54636;51.684;5.142;2022-07-11T12:54:22;102483.25;;;25.14;52.41
67840;BME280;54636;51.684;5.142;2022-07-11T12:57:34;102443.09;;;25.02;52.54
67840;BME280;54636;51.684;5.142;2022-07-11T13:00:13;102496.88;;;25.25;52.46
67840;BME280;54636;51.684;5.142;2022-07-11T13:05:55;102483.94;;;25.07;53.19
67840;BME280;54636;51.684;5.142;2022-07-11T13:08:36;102469.88;;;25.12;52.01
67840;BME280;54636;51.684;5.142;2022-07-11T13:12:04;102439.81;;;24.90;53.73
67840;BME280;54636;51.684;5.142;2022-07-11T13:14:47;102449.66;;;25.33;53.17
67840;BME280;54636;51.684;5.142;2022-07-11T13:17:39;102428.47;;;25.58;51.96
67840;BME280;54636;51.684;5.142;2022-07-11T13:20:48;102454.84;;;26.01;50.57
67840;BME280;54636;51.684;5.142;2022-07-11T13:33:42;102488.31;;;25.23;53.20
67840;BME280;54636;51.684;5.142;2022-07-11T13:36:32;102435.69;;;24.42;53.79
67840;BME280;54636;51.684;5.142;2022-07-11T13:39:38;102414.78;;;23.80;55.03
67840;BME280;54636;51.684;5.142;2022-07-11T13:45:30;102438.47;;;24.42;54.51
67840;BME280;54636;51.684;5.142;2022-07-11T13:48:10;102466.41;;;24.78;53.92
67840;BME280;54636;51.684;5.142;2022-07-11T13:50:56;102431.66;;;24.29;54.09
67840;BME280;54636;51.684;5.142;2022-07-11T13:53:22;102428.59;;;24.07;54.44
67840;BME280;54636;51.684;5.142;2022-07-11T13:56:00;102481.72;;;24.24;56.02
67840;BME280;54636;51.684;5.142;2022-07-11T13:58:26;102440.59;;;23.88;56.63
67840;BME280;54636;51.684;5.142;2022-07-11T14:01:04;102447.69;;;24.10;56.83
67840;BME280;54636;51.684;5.142;2022-07-11T14:03:32;102443.94;;;24.34;55.30
67840;BME280;54636;51.684;5.142;2022-07-11T14:06:01;102407.50;;;24.24;54.18
67840;BME280;54636;51.684;5.142;2022-07-11T14:08:26;102445.78;;;24.52;54.31
67840;BME280;54636;51.684;5.142;2022-07-11T14:10:55;102419.28;;;24.17;54.57
67840;BME280;54636;51.684;5.142;2022-07-11T14:13:54;102443.72;;;24.32;55.71
67840;BME280;54636;51.684;5.142;2022-07-11T14:16:22;102422.25;;;23.85;55.22
67840;BME280;54636;51.684;5.142;2022-07-11T14:18:51;102417.97;;;23.71;55.44
67840;BME280;54636;51.684;5.142;2022-07-11T14:21:33;102442.94;;;23.84;55.79
67840;BME280;54636;51.684;5.142;2022-07-11T14:24:02;102413.06;;;23.90;55.13
67840;BME280;54636;51.684;5.142;2022-07-11T14:26:30;102447.63;;;24.50;55.46
67840;BME280;54636;51.684;5.142;2022-07-11T14:29:16;102444.25;;;25.06;53.69
67840;BME280;54636;51.684;5.142;2022-07-11T14:38:45;102459.88;;;25.66;52.00
67840;BME280;54636;51.684;5.142;2022-07-11T14:41:26;102403.50;;;24.88;51.97
67840;BME280;54636;51.684;5.142;2022-07-11T14:44:05;102412.25;;;24.50;53.11
67840;BME280;54636;51.684;5.142;2022-07-11T14:53:29;102407.31;;;24.56;53.48
67840;BME280;54636;51.684;5.142;2022-07-11T14:59:36;102442.03;;;25.05;53.34
67840;BME280;54636;51.684;5.142;2022-07-11T15:02:02;102401.41;;;24.81;51.18
67840;BME280;54636;51.684;5.142;2022-07-11T15:04:29;102436.25;;;25.03;52.28